sensor_id;sensor_type;location;lat;lon;timestamp;P1;durP1;ratioP1;P2;durP2;ratioP2
5549;SDS011;2798;42.716;23.256;2023-03-04T00:01:57;14.20;;;9.30;;
5549;SDS011;2798;42.716;23.256;2023-03-04T00:04:23;13.00;;;9.13;;
5549;SDS011;2798;42.716;23.256;2023-03-04T00:06:48;14.93;;;9.23;;
5549;SDS011;2798;42.716;23.256;2023-03-04T00:09:13;16.00;;;9.30;;
5549;SDS011;2798;42.716;23.256;2023-03-04T00:11:38;15.67;;;9.50;;
5549;SDS011;2798;42.716;23.256;2023-03-04T00:14:04;15.23;;;9.17;;
5549;SDS011;2798;42.716;23.256;2023-03-04T00:16:30;14.57;;;8.93;;
5549;SDS011;2798;42.716;23.256;2023-03-04T00:18:56;13.67;;;8.87;;
5549;SDS011;2798;42.716;23.256;2023-03-04T00:21:21;14.63;;;9.27;;
5549;SDS011;2798;42.716;23.256;2023-03-04T00:23:47;15.50;;;9.07;;
5549;SDS011;2798;42.716;23.256;2023-03-04T00:26:12;14.47;;;9.10;;
5549;SDS011;2798;42.716;23.256;2023-03-04T00:28:38;15.13;;;10.20;;
5549;SDS011;2798;42.716;23.256;2023-03-04T00:31:04;17.27;;;10.30;;
5549;SDS011;2798;42.716;23.256;2023-03-04T00:33:29;17.27;;;10.00;;
5549;SDS011;2798;42.716;23.256;2023-03-04T00:35:54;15.20;;;9.40;;
5549;SDS011;2798;42.716;23.256;2023-03-04T00:38:19;20.90;;;11.27;;
5549;SDS011;2798;42.716;23.256;2023-03-04T00:40:45;16.63;;;9.87;;
5549;SDS011;2798;42.716;23.256;2023-03-04T00:43:10;16.77;;;10.23;;
5549;SDS011;2798;42.716;23.256;2023-03-04T00:45:35;14.07;;;9.60;;
5549;SDS011;2798;42.716;23.256;2023-03-04T00:48:00;14.33;;;9.33;;
5549;SDS011;2798;42.716;23.256;2023-03-04T00:50:26;14.23;;;9.90;;
5549;SDS011;2798;42.716;23.256;2023-03-04T00:52:51;14.57;;;9.33;;
5549;SDS011;2798;42.716;23.256;2023-03-04T00:55:16;14.17;;;9.17;;
5549;SDS011;2798;42.716;23.256;2023-03-04T00:57:41;12.13;;;8.77;;
5549;SDS011;2798;42.716;23.256;2023-03-04T01:00:07;13.23;;;9.17;;
5549;SDS011;2798;42.716;23.256;2023-03-04T01:02:33;13.47;;;9.30;;
5549;SDS011;2798;42.716;23.256;2023-03-04T01:04:58;13.63;;;9.70;;
5549;SDS011;2798;42.716;23.256;2023-03-04T01:07:23;13.50;;;9.27;;
5549;SDS011;2798;42.716;23.256;2023-03-04T01:09:48;11.80;;;8.27;;
5549;SDS011;2798;42.716;23.256;2023-03-04T01:12:14;13.27;;;8.17;;
5549;SDS011;2798;42.716;23.256;2023-03-04T01:14:39;13.20;;;8.97;;
5549;SDS011;2798;42.716;23.256;2023-03-04T01:17:04;13.53;;;9.37;;
5549;SDS011;2798;42.716;23.256;2023-03-04T01:19:29;15.27;;;9.50;;
5549;SDS011;2798;42.716;23.256;2023-03-04T01:21:55;14.20;;;9.23;;
5549;SDS011;2798;42.716;23.256;2023-03-04T01:24:20;14.23;;;9.70;;
5549;SDS011;2798;42.716;23.256;2023-03-04T01:26:45;17.13;;;11.07;;
5549;SDS011;2798;42.716;23.256;2023-03-04T01:29:10;13.70;;;9.00;;
5549;SDS011;2798;42.716;23.256;2023-03-04T01:31:36;13.50;;;9.00;;
5549;SDS011;2798;42.716;23.256;2023-03-04T01:34:01;16.47;;;9.73;;
5549;SDS011;2798;42.716;23.256;2023-03-04T01:36:26;16.90;;;9.57;;
5549;SDS011;2798;42.716;23.256;2023-03-04T01:38:52;15.30;;;9.60;;
5549;SDS011;2798;42.716;23.256;2023-03-04T01:41:18;14.80;;;9.30;;
5549;SDS011;2798;42.716;23.256;2023-03-04T01:43:45;16.47;;;9.80;;
5549;SDS011;2798;42.716;23.256;2023-03-04T01:46:11;18.57;;;9.00;;
5549;SDS011;2798;42.716;23.256;2023-03-04T01:48:39;16.13;;;9.97;;
5549;SDS011;2798;42.716;23.256;2023-03-04T01:51:05;15.60;;;10.03;;
5549;SDS011;2798;42.716;23.256;2023-03-04T01:53:31;12.43;;;9.10;;
5549;SDS011;2798;42.716;23.256;2023-03-04T01:55:59;13.93;;;8.80;;
5549;SDS011;2798;42.716;23.256;2023-03-04T01:58:28;15.37;;;10.03;;
5549;SDS011;2798;42.716;23.256;2023-03-04T02:00:54;14.33;;;9.27;;
5549;SDS011;2798;42.716;23.256;2023-03-04T02:03:19;16.23;;;9.80;;
5549;SDS011;2798;42.716;23.256;2023-03-04T02:05:46;14.43;;;8.93;;
5549;SDS011;2798;42.716;23.256;2023-03-04T02:08:12;15.07;;;9.47;;
5549;SDS011;2798;42.716;23.256;2023-03-04T02:10:38;17.43;;;10.73;;
5549;SDS011;2798;42.716;23.256;2023-03-04T02:13:04;17.47;;;10.00;;
5549;SDS011;2798;42.716;23.256;2023-03-04T02:15:30;13.67;;;9.17;;
5549;SDS011;2798;42.716;23.256;2023-03-04T02:17:55;15.40;;;10.10;;
5549;SDS011;2798;42.716;23.256;2023-03-04T02:23:14;17.50;;;9.80;;
5549;SDS011;2798;42.716;23.256;2023-03-04T02:25:45;15.73;;;9.60;;
5549;SDS011;2798;42.716;23.256;2023-03-04T02:28:11;16.10;;;9.90;;
5549;SDS011;2798;42.716;23.256;2023-03-04T02:30:37;14.40;;;9.43;;
5549;SDS011;2798;42.716;23.256;2023-03-04T02:33:02;15.43;;;9.83;;
5549;SDS011;2798;42.716;23.256;2023-03-04T02:35:28;16.60;;;9.90;;
5549;SDS011;2798;42.716;23.256;2023-03-04T02:37:53;17.10;;;9.33;;
5549;SDS011;2798;42.716;23.256;2023-03-04T02:40:21;15.30;;;9.40;;
5549;SDS011;2798;42.716;23.256;2023-03-04T02:42:47;13.87;;;9.03;;
5549;SDS011;2798;42.716;23.256;2023-03-04T02:47:56;12.57;;;8.53;;
5549;SDS011;2798;42.716;23.256;2023-03-04T02:50:21;16.90;;;9.67;;
5549;SDS011;2798;42.716;23.256;2023-03-04T02:52:47;14.80;;;9.70;;
5549;SDS011;2798;42.716;23.256;2023-03-04T02:55:12;13.83;;;9.20;;
5549;SDS011;2798;42.716;23.256;2023-03-04T02:57:37;12.73;;;9.17;;
5549;SDS011;2798;42.716;23.256;2023-03-04T03:00:03;12.53;;;8.53;;
5549;SDS011;2798;42.716;23.256;2023-03-04T03:02:28;14.60;;;9.63;;
5549;SDS011;2798;42.716;23.256;2023-03-04T03:04:53;15.07;;;9.67;;
5549;SDS011;2798;42.716;23.256;2023-03-04T03:07:19;15.20;;;8.80;;
5549;SDS011;2798;42.716;23.256;2023-03-04T03:09:44;14.00;;;9.37;;
5549;SDS011;2798;42.716;23.256;2023-03-04T03:12:10;14.57;;;8.90;;
5549;SDS011;2798;42.716;23.256;2023-03-04T03:14:35;14.40;;;9.33;;
5549;SDS011;2798;42.716;23.256;2023-03-04T03:17:00;15.90;;;10.70;;
5549;SDS011;2798;42.716;23.256;2023-03-04T03:19:25;17.70;;;10.30;;
5549;SDS011;2798;42.716;23.256;2023-03-04T03:21:51;17.37;;;9.77;;
5549;SDS011;2798;42.716;23.256;2023-03-04T03:24:16;13.53;;;8.87;;
5549;SDS011;2798;42.716;23.256;2023-03-04T03:26:41;12.83;;;9.00;;
5549;SDS011;2798;42.716;23.256;2023-03-04T03:29:06;13.07;;;9.20;;
5549;SDS011;2798;42.716;23.256;2023-03-04T03:31:32;13.80;;;9.33;;
5549;SDS011;2798;42.716;23.256;2023-03-04T03:33:57;16.50;;;10.50;;
5549;SDS011;2798;42.716;23.256;2023-03-04T03:36:22;13.90;;;10.17;;
5549;SDS011;2798;42.716;23.256;2023-03-04T03:38:47;16.40;;;11.20;;
5549;SDS011;2798;42.716;23.256;2023-03-04T03:41:12;14.50;;;9.87;;
5549;SDS011;2798;42.716;23.256;2023-03-04T03:43:38;14.53;;;10.40;;
5549;SDS011;2798;42.716;23.256;2023-03-04T03:46:05;17.30;;;10.90;;
5549;SDS011;2798;42.716;23.256;2023-03-04T03:48:30;15.63;;;11.20;;
5549;SDS011;2798;42.716;23.256;2023-03-04T03:50:55;16.00;;;10.67;;
5549;SDS011;2798;42.716;23.256;2023-03-04T03:53:21;14.53;;;9.83;;
5549;SDS011;2798;42.716;23.256;2023-03-04T03:55:46;12.67;;;9.47;;
5549;SDS011;2798;42.716;23.256;2023-03-04T03:58:11;16.03;;;9.80;;
5549;SDS011;2798;42.716;23.256;2023-03-04T04:00:37;15.20;;;10.60;;
5549;SDS011;2798;42.716;23.256;2023-03-04T04:03:02;15.03;;;10.33;;
5549;SDS011;2798;42.716;23.256;2023-03-04T04:05:27;14.70;;;10.40;;
5549;SDS011;2798;42.716;23.256;2023-03-04T04:07:53;14.70;;;10.20;;
5549;SDS011;2798;42.716;23.256;2023-03-04T04:10:18;14.27;;;9.40;;
5549;SDS011;2798;42.716;23.256;2023-03-04T04:12:44;16.57;;;10.90;;
5549;SDS011;2798;42.716;23.256;2023-03-04T04:15:10;15.80;;;11.30;;
5549;SDS011;2798;42.716;23.256;2023-03-04T04:17:35;15.70;;;10.40;;
5549;SDS011;2798;42.716;23.256;2023-03-04T04:20:01;14.27;;;9.90;;
5549;SDS011;2798;42.716;23.256;2023-03-04T04:22:26;19.37;;;10.47;;
5549;SDS011;2798;42.716;23.256;2023-03-04T04:24:51;15.80;;;10.50;;
5549;SDS011;2798;42.716;23.256;2023-03-04T04:27:16;16.80;;;11.33;;
5549;SDS011;2798;42.716;23.256;2023-03-04T04:29:42;16.90;;;11.07;;
5549;SDS011;2798;42.716;23.256;2023-03-04T04:32:07;15.03;;;9.97;;
5549;SDS011;2798;42.716;23.256;2023-03-04T04:34:33;15.93;;;9.83;;
5549;SDS011;2798;42.716;23.256;2023-03-04T04:36:58;14.30;;;10.30;;
5549;SDS011;2798;42.716;23.256;2023-03-04T04:39:23;16.73;;;11.10;;
5549;SDS011;2798;42.716;23.256;2023-03-04T04:41:48;15.77;;;10.77;;
5549;SDS011;2798;42.716;23.256;2023-03-04T04:44:14;16.90;;;10.67;;
5549;SDS011;2798;42.716;23.256;2023-03-04T04:46:39;15.33;;;9.57;;
5549;SDS011;2798;42.716;23.256;2023-03-04T04:49:05;15.93;;;11.13;;
5549;SDS011;2798;42.716;23.256;2023-03-04T04:51:30;18.13;;;10.77;;
5549;SDS011;2798;42.716;23.256;2023-03-04T04:53:56;15.87;;;10.23;;
5549;SDS011;2798;42.716;23.256;2023-03-04T04:56:22;15.03;;;9.77;;
5549;SDS011;2798;42.716;23.256;2023-03-04T04:58:50;16.13;;;10.20;;
5549;SDS011;2798;42.716;23.256;2023-03-04T05:01:15;14.27;;;9.93;;
5549;SDS011;2798;42.716;23.256;2023-03-04T05:03:40;13.83;;;10.00;;
5549;SDS011;2798;42.716;23.256;2023-03-04T05:06:06;15.23;;;9.70;;
5549;SDS011;2798;42.716;23.256;2023-03-04T05:08:32;14.20;;;9.57;;
5549;SDS011;2798;42.716;23.256;2023-03-04T05:10:57;15.70;;;9.63;;
5549;SDS011;2798;42.716;23.256;2023-03-04T05:13:22;13.03;;;9.57;;
5549;SDS011;2798;42.716;23.256;2023-03-04T05:15:50;15.50;;;10.23;;
5549;SDS011;2798;42.716;23.256;2023-03-04T05:18:15;14.43;;;9.77;;
5549;SDS011;2798;42.716;23.256;2023-03-04T05:20:40;14.43;;;9.83;;
5549;SDS011;2798;42.716;23.256;2023-03-04T05:23:06;12.60;;;9.00;;
5549;SDS011;2798;42.716;23.256;2023-03-04T05:25:31;13.40;;;10.20;;
5549;SDS011;2798;42.716;23.256;2023-03-04T05:27:56;16.37;;;10.23;;
5549;SDS011;2798;42.716;23.256;2023-03-04T05:30:21;13.87;;;9.80;;
5549;SDS011;2798;42.716;23.256;2023-03-04T05:32:47;14.30;;;9.73;;
5549;SDS011;2798;42.716;23.256;2023-03-04T05:35:12;16.10;;;10.27;;
5549;SDS011;2798;42.716;23.256;2023-03-04T05:37:37;16.43;;;10.53;;
5549;SDS011;2798;42.716;23.256;2023-03-04T05:40:03;16.97;;;10.47;;
5549;SDS011;2798;42.716;23.256;2023-03-04T05:42:29;15.20;;;10.07;;
5549;SDS011;2798;42.716;23.256;2023-03-04T05:44:54;18.27;;;10.57;;
5549;SDS011;2798;42.716;23.256;2023-03-04T05:47:19;15.07;;;11.00;;
5549;SDS011;2798;42.716;23.256;2023-03-04T05:49:44;18.17;;;10.80;;
5549;SDS011;2798;42.716;23.256;2023-03-04T05:52:10;16.63;;;11.57;;
5549;SDS011;2798;42.716;23.256;2023-03-04T05:54:35;17.43;;;10.37;;
5549;SDS011;2798;42.716;23.256;2023-03-04T05:57:00;15.70;;;10.40;;
5549;SDS011;2798;42.716;23.256;2023-03-04T05:59:26;13.80;;;9.63;;
5549;SDS011;2798;42.716;23.256;2023-03-04T06:01:51;15.07;;;10.53;;
5549;SDS011;2798;42.716;23.256;2023-03-04T06:04:17;15.57;;;10.17;;
5549;SDS011;2798;42.716;23.256;2023-03-04T06:06:42;15.43;;;11.07;;
5549;SDS011;2798;42.716;23.256;2023-03-04T06:09:08;14.70;;;10.47;;
5549;SDS011;2798;42.716;23.256;2023-03-04T06:11:33;15.30;;;9.83;;
5549;SDS011;2798;42.716;23.256;2023-03-04T06:13:58;16.03;;;10.10;;
5549;SDS011;2798;42.716;23.256;2023-03-04T06:16:23;14.90;;;10.47;;
5549;SDS011;2798;42.716;23.256;2023-03-04T06:18:49;15.50;;;10.27;;
5549;SDS011;2798;42.716;23.256;2023-03-04T06:21:14;16.60;;;10.40;;
5549;SDS011;2798;42.716;23.256;2023-03-04T06:23:39;14.37;;;9.67;;
5549;SDS011;2798;42.716;23.256;2023-03-04T06:26:06;13.83;;;9.60;;
5549;SDS011;2798;42.716;23.256;2023-03-04T06:28:33;13.53;;;9.90;;
5549;SDS011;2798;42.716;23.256;2023-03-04T06:30:58;16.00;;;10.80;;
5549;SDS011;2798;42.716;23.256;2023-03-04T06:33:24;14.90;;;10.33;;
5549;SDS011;2798;42.716;23.256;2023-03-04T06:35:52;14.07;;;10.57;;
5549;SDS011;2798;42.716;23.256;2023-03-04T06:38:18;17.20;;;9.90;;
5549;SDS011;2798;42.716;23.256;2023-03-04T06:40:43;13.13;;;9.40;;
5549;SDS011;2798;42.716;23.256;2023-03-04T06:43:09;12.90;;;8.93;;
5549;SDS011;2798;42.716;23.256;2023-03-04T06:45:35;14.33;;;9.50;;
5549;SDS011;2798;42.716;23.256;2023-03-04T06:48:02;14.83;;;9.03;;
5549;SDS011;2798;42.716;23.256;2023-03-04T06:50:27;19.20;;;8.80;;
5549;SDS011;2798;42.716;23.256;2023-03-04T06:52:54;10.60;;;8.20;;
5549;SDS011;2798;42.716;23.256;2023-03-04T06:55:20;12.47;;;8.17;;
5549;SDS011;2798;42.716;23.256;2023-03-04T06:57:45;13.63;;;8.37;;
5549;SDS011;2798;42.716;23.256;2023-03-04T07:00:10;10.00;;;7.37;;
5549;SDS011;2798;42.716;23.256;2023-03-04T07:02:36;11.77;;;7.90;;
5549;SDS011;2798;42.716;23.256;2023-03-04T07:05:01;12.20;;;7.60;;
5549;SDS011;2798;42.716;23.256;2023-03-04T07:07:26;8.77;;;6.77;;
5549;SDS011;2798;42.716;23.256;2023-03-04T07:09:51;12.20;;;7.27;;
5549;SDS011;2798;42.716;23.256;2023-03-04T07:12:17;12.17;;;7.57;;
5549;SDS011;2798;42.716;23.256;2023-03-04T07:14:42;10.63;;;7.60;;
5549;SDS011;2798;42.716;23.256;2023-03-04T07:17:07;11.37;;;7.40;;
5549;SDS011;2798;42.716;23.256;2023-03-04T07:19:32;12.73;;;8.37;;
5549;SDS011;2798;42.716;23.256;2023-03-04T07:21:58;10.97;;;7.50;;
5549;SDS011;2798;42.716;23.256;2023-03-04T07:24:23;10.60;;;7.03;;
5549;SDS011;2798;42.716;23.256;2023-03-04T07:26:48;10.20;;;7.10;;
5549;SDS011;2798;42.716;23.256;2023-03-04T07:29:13;10.90;;;7.93;;
5549;SDS011;2798;42.716;23.256;2023-03-04T07:31:39;10.07;;;7.33;;
5549;SDS011;2798;42.716;23.256;2023-03-04T07:34:05;10.17;;;7.00;;
5549;SDS011;2798;42.716;23.256;2023-03-04T07:36:30;11.40;;;7.13;;
5549;SDS011;2798;42.716;23.256;2023-03-04T07:38:56;9.30;;;7.40;;
5549;SDS011;2798;42.716;23.256;2023-03-04T07:41:21;9.47;;;6.97;;
5549;SDS011;2798;42.716;23.256;2023-03-04T07:43:47;12.80;;;8.00;;
5549;SDS011;2798;42.716;23.256;2023-03-04T07:46:13;10.83;;;7.80;;
5549;SDS011;2798;42.716;23.256;2023-03-04T07:48:38;11.83;;;7.90;;
5549;SDS011;2798;42.716;23.256;2023-03-04T07:51:08;11.57;;;8.43;;
5549;SDS011;2798;42.716;23.256;2023-03-04T07:53:34;14.53;;;9.40;;
5549;SDS011;2798;42.716;23.256;2023-03-04T07:55:59;10.70;;;7.70;;
5549;SDS011;2798;42.716;23.256;2023-03-04T07:58:25;13.10;;;8.50;;
5549;SDS011;2798;42.716;23.256;2023-03-04T08:00:50;12.40;;;8.63;;
5549;SDS011;2798;42.716;23.256;2023-03-04T08:03:15;18.33;;;8.43;;
5549;SDS011;2798;42.716;23.256;2023-03-04T08:05:41;13.80;;;9.00;;
5549;SDS011;2798;42.716;23.256;2023-03-04T08:08:06;13.53;;;8.37;;
5549;SDS011;2798;42.716;23.256;2023-03-04T08:10:31;11.77;;;8.07;;
5549;SDS011;2798;42.716;23.256;2023-03-04T08:12:57;13.50;;;9.50;;
5549;SDS011;2798;42.716;23.256;2023-03-04T08:15:22;12.63;;;8.40;;
5549;SDS011;2798;42.716;23.256;2023-03-04T08:17:48;16.50;;;8.47;;
5549;SDS011;2798;42.716;23.256;2023-03-04T08:20:14;11.97;;;7.07;;
5549;SDS011;2798;42.716;23.256;2023-03-04T08:22:39;11.83;;;8.27;;
5549;SDS011;2798;42.716;23.256;2023-03-04T08:25:04;11.83;;;8.20;;
5549;SDS011;2798;42.716;23.256;2023-03-04T08:27:30;10.67;;;7.27;;
5549;SDS011;2798;42.716;23.256;2023-03-04T08:29:55;15.27;;;8.87;;
5549;SDS011;2798;42.716;23.256;2023-03-04T08:32:20;12.20;;;8.33;;
5549;SDS011;2798;42.716;23.256;2023-03-04T08:34:45;15.20;;;8.57;;
5549;SDS011;2798;42.716;23.256;2023-03-04T08:37:11;11.17;;;8.20;;
5549;SDS011;2798;42.716;23.256;2023-03-04T08:39:36;15.00;;;8.60;;
5549;SDS011;2798;42.716;23.256;2023-03-04T08:42:01;11.77;;;8.00;;
5549;SDS011;2798;42.716;23.256;2023-03-04T08:44:27;12.63;;;8.37;;
5549;SDS011;2798;42.716;23.256;2023-03-04T08:46:52;15.00;;;8.77;;
5549;SDS011;2798;42.716;23.256;2023-03-04T08:49:17;13.47;;;8.80;;
5549;SDS011;2798;42.716;23.256;2023-03-04T08:51:43;13.30;;;9.10;;
5549;SDS011;2798;42.716;23.256;2023-03-04T08:54:09;16.57;;;8.73;;
5549;SDS011;2798;42.716;23.256;2023-03-04T08:56:34;14.10;;;9.10;;
5549;SDS011;2798;42.716;23.256;2023-03-04T08:58:59;13.93;;;9.40;;
5549;SDS011;2798;42.716;23.256;2023-03-04T09:01:25;15.00;;;8.80;;
5549;SDS011;2798;42.716;23.256;2023-03-04T09:03:50;14.73;;;10.00;;
5549;SDS011;2798;42.716;23.256;2023-03-04T09:06:16;13.63;;;9.30;;
5549;SDS011;2798;42.716;23.256;2023-03-04T09:08:42;16.67;;;8.70;;
5549;SDS011;2798;42.716;23.256;2023-03-04T09:11:07;15.30;;;10.70;;
5549;SDS011;2798;42.716;23.256;2023-03-04T09:13:33;16.50;;;10.03;;
5549;SDS011;2798;42.716;23.256;2023-03-04T09:15:58;15.50;;;9.10;;
5549;SDS011;2798;42.716;23.256;2023-03-04T09:18:24;15.90;;;9.73;;
5549;SDS011;2798;42.716;23.256;2023-03-04T09:20:49;16.90;;;9.77;;
5549;SDS011;2798;42.716;23.256;2023-03-04T09:23:15;15.30;;;9.47;;
5549;SDS011;2798;42.716;23.256;2023-03-04T09:25:40;14.53;;;8.40;;
5549;SDS011;2798;42.716;23.256;2023-03-04T09:28:06;17.50;;;9.40;;
5549;SDS011;2798;42.716;23.256;2023-03-04T09:30:31;15.10;;;8.40;;
5549;SDS011;2798;42.716;23.256;2023-03-04T09:32:57;13.20;;;8.33;;
5549;SDS011;2798;42.716;23.256;2023-03-04T09:35:22;17.83;;;8.57;;
5549;SDS011;2798;42.716;23.256;2023-03-04T09:37:48;13.47;;;8.33;;
5549;SDS011;2798;42.716;23.256;2023-03-04T09:40:17;14.30;;;8.63;;
5549;SDS011;2798;42.716;23.256;2023-03-04T09:42:46;14.97;;;8.50;;
5549;SDS011;2798;42.716;23.256;2023-03-04T09:45:12;18.00;;;8.93;;
5549;SDS011;2798;42.716;23.256;2023-03-04T09:47:40;13.73;;;8.93;;
5549;SDS011;2798;42.716;23.256;2023-03-04T09:50:07;13.53;;;7.90;;
5549;SDS011;2798;42.716;23.256;2023-03-04T09:55:23;26.33;;;9.77;;
5549;SDS011;2798;42.716;23.256;2023-03-04T09:57:52;13.87;;;9.47;;
5549;SDS011;2798;42.716;23.256;2023-03-04T10:05:33;11.30;;;7.50;;
5549;SDS011;2798;42.716;23.256;2023-03-04T10:10:44;14.10;;;8.47;;
5549;SDS011;2798;42.716;23.256;2023-03-04T10:13:13;10.73;;;7.80;;
5549;SDS011;2798;42.716;23.256;2023-03-04T10:15:41;16.40;;;7.70;;
5549;SDS011;2798;42.716;23.256;2023-03-04T10:18:13;14.17;;;7.40;;
5549;SDS011;2798;42.716;23.256;2023-03-04T10:23:17;20.70;;;9.30;;
5549;SDS011;2798;42.716;23.256;2023-03-04T10:25:43;18.10;;;7.80;;
5549;SDS011;2798;42.716;23.256;2023-03-04T10:28:17;14.20;;;8.17;;
5549;SDS011;2798;42.716;23.256;2023-03-04T10:33:28;10.30;;;7.30;;
5549;SDS011;2798;42.716;23.256;2023-03-04T10:36:57;11.87;;;8.17;;
5549;SDS011;2798;42.716;23.256;2023-03-04T10:38:58;10.40;;;7.67;;
5549;SDS011;2798;42.716;23.256;2023-03-04T10:41:24;10.33;;;7.13;;
5549;SDS011;2798;42.716;23.256;2023-03-04T10:46:24;11.93;;;7.50;;
5549;SDS011;2798;42.716;23.256;2023-03-04T10:48:50;12.20;;;7.53;;
5549;SDS011;2798;42.716;23.256;2023-03-04T10:51:20;8.30;;;7.00;;
5549;SDS011;2798;42.716;23.256;2023-03-04T10:53:46;14.53;;;8.30;;
5549;SDS011;2798;42.716;23.256;2023-03-04T10:59:22;12.10;;;8.03;;
5549;SDS011;2798;42.716;23.256;2023-03-04T11:01:42;14.73;;;8.73;;
5549;SDS011;2798;42.716;23.256;2023-03-04T11:04:16;12.77;;;8.77;;
5549;SDS011;2798;42.716;23.256;2023-03-04T11:06:42;19.60;;;7.60;;
5549;SDS011;2798;42.716;23.256;2023-03-04T11:09:16;13.53;;;8.20;;
5549;SDS011;2798;42.716;23.256;2023-03-04T11:11:44;12.67;;;8.00;;
5549;SDS011;2798;42.716;23.256;2023-03-04T11:16:51;11.03;;;8.10;;
5549;SDS011;2798;42.716;23.256;2023-03-04T11:19:16;11.50;;;8.03;;
5549;SDS011;2798;42.716;23.256;2023-03-04T11:21:42;11.70;;;7.93;;
5549;SDS011;2798;42.716;23.256;2023-03-04T11:24:15;10.77;;;7.80;;
5549;SDS011;2798;42.716;23.256;2023-03-04T11:26:50;16.23;;;7.83;;
5549;SDS011;2798;42.716;23.256;2023-03-04T11:31:47;11.47;;;7.93;;
5549;SDS011;2798;42.716;23.256;2023-03-04T11:37:03;13.50;;;9.10;;
5549;SDS011;2798;42.716;23.256;2023-03-04T11:44:42;15.67;;;9.20;;
5549;SDS011;2798;42.716;23.256;2023-03-04T11:47:20;10.30;;;7.63;;
5549;SDS011;2798;42.716;23.256;2023-03-04T11:57:22;15.13;;;8.63;;
5549;SDS011;2798;42.716;23.256;2023-03-04T12:02:28;13.30;;;8.63;;
5549;SDS011;2798;42.716;23.256;2023-03-04T12:05:10;10.80;;;8.13;;
5549;SDS011;2798;42.716;23.256;2023-03-04T12:10:23;12.80;;;6.90;;
5549;SDS011;2798;42.716;23.256;2023-03-04T12:25:54;10.07;;;7.30;;
5549;SDS011;2798;42.716;23.256;2023-03-04T12:28:29;11.87;;;7.60;;
5549;SDS011;2798;42.716;23.256;2023-03-04T12:33:33;13.30;;;7.23;;
5549;SDS011;2798;42.716;23.256;2023-03-04T12:36:27;13.27;;;7.80;;
5549;SDS011;2798;42.716;23.256;2023-03-04T12:39:07;9.63;;;7.70;;
5549;SDS011;2798;42.716;23.256;2023-03-04T12:44:12;10.90;;;7.97;;
5549;SDS011;2798;42.716;23.256;2023-03-04T12:46:43;11.00;;;7.40;;
5549;SDS011;2798;42.716;23.256;2023-03-04T12:49:25;13.60;;;9.23;;
5549;SDS011;2798;42.716;23.256;2023-03-04T12:59:16;13.23;;;9.57;;
5549;SDS011;2798;42.716;23.256;2023-03-04T13:01:44;13.53;;;8.30;;
5549;SDS011;2798;42.716;23.256;2023-03-04T13:11:39;12.70;;;7.80;;
5549;SDS011;2798;42.716;23.256;2023-03-04T13:16:41;13.27;;;8.80;;
5549;SDS011;2798;42.716;23.256;2023-03-04T13:21:51;14.93;;;8.80;;
5549;SDS011;2798;42.716;23.256;2023-03-04T13:27:43;13.33;;;9.17;;
5549;SDS011;2798;42.716;23.256;2023-03-04T13:29:47;18.00;;;8.93;;
5549;SDS011;2798;42.716;23.256;2023-03-04T13:32:13;11.93;;;9.20;;
5549;SDS011;2798;42.716;23.256;2023-03-04T13:34:58;13.60;;;8.93;;
5549;SDS011;2798;42.716;23.256;2023-03-04T13:37:33;15.63;;;10.07;;
5549;SDS011;2798;42.716;23.256;2023-03-04T13:42:41;16.57;;;8.67;;
5549;SDS011;2798;42.716;23.256;2023-03-04T13:47:50;12.27;;;9.10;;
5549;SDS011;2798;42.716;23.256;2023-03-04T13:52:56;16.97;;;9.83;;
5549;SDS011;2798;42.716;23.256;2023-03-04T13:57:58;18.10;;;10.37;;
5549;SDS011;2798;42.716;23.256;2023-03-04T14:00:24;14.23;;;9.13;;
5549;SDS011;2798;42.716;23.256;2023-03-04T14:02:49;18.87;;;11.87;;
5549;SDS011;2798;42.716;23.256;2023-03-04T14:05:15;12.83;;;9.10;;
5549;SDS011;2798;42.716;23.256;2023-03-04T14:07:40;13.10;;;9.40;;
5549;SDS011;2798;42.716;23.256;2023-03-04T14:15:03;16.60;;;10.17;;
5549;SDS011;2798;42.716;23.256;2023-03-04T14:17:30;17.40;;;10.83;;
5549;SDS011;2798;42.716;23.256;2023-03-04T14:19:56;16.80;;;11.00;;
5549;SDS011;2798;42.716;23.256;2023-03-04T14:22:31;19.80;;;11.63;;
5549;SDS011;2798;42.716;23.256;2023-03-04T14:27:23;16.83;;;10.10;;
5549;SDS011;2798;42.716;23.256;2023-03-04T14:29:55;18.67;;;12.90;;
5549;SDS011;2798;42.716;23.256;2023-03-04T14:32:21;20.27;;;11.83;;
5549;SDS011;2798;42.716;23.256;2023-03-04T14:34:47;18.60;;;11.27;;
5549;SDS011;2798;42.716;23.256;2023-03-04T14:37:23;21.60;;;12.47;;
5549;SDS011;2798;42.716;23.256;2023-03-04T14:39:49;21.00;;;11.47;;
5549;SDS011;2798;42.716;23.256;2023-03-04T14:42:16;19.20;;;12.13;;
5549;SDS011;2798;42.716;23.256;2023-03-04T14:44:46;19.90;;;13.67;;
5549;SDS011;2798;42.716;23.256;2023-03-04T14:49:37;20.33;;;13.13;;
5549;SDS011;2798;42.716;23.256;2023-03-04T14:52:04;24.27;;;12.23;;
5549;SDS011;2798;42.716;23.256;2023-03-04T14:56:58;20.83;;;12.90;;
5549;SDS011;2798;42.716;23.256;2023-03-04T14:59:30;20.17;;;12.40;;
5549;SDS011;2798;42.716;23.256;2023-03-04T15:02:15;17.83;;;12.23;;
5549;SDS011;2798;42.716;23.256;2023-03-04T15:04:42;20.27;;;12.90;;
5549;SDS011;2798;42.716;23.256;2023-03-04T15:07:14;20.67;;;12.93;;
5549;SDS011;2798;42.716;23.256;2023-03-04T15:09:40;16.27;;;12.10;;
5549;SDS011;2798;42.716;23.256;2023-03-04T15:12:05;18.63;;;13.20;;
5549;SDS011;2798;42.716;23.256;2023-03-04T15:14:42;17.73;;;12.80;;
5549;SDS011;2798;42.716;23.256;2023-03-04T15:20:11;20.80;;;12.73;;
5549;SDS011;2798;42.716;23.256;2023-03-04T15:25:10;21.40;;;13.60;;
5549;SDS011;2798;42.716;23.256;2023-03-04T15:27:36;25.70;;;13.83;;
5549;SDS011;2798;42.716;23.256;2023-03-04T15:30:01;26.10;;;15.20;;
5549;SDS011;2798;42.716;23.256;2023-03-04T15:32:29;24.67;;;15.50;;
5549;SDS011;2798;42.716;23.256;2023-03-04T15:34:55;29.80;;;18.20;;
5549;SDS011;2798;42.716;23.256;2023-03-04T15:37:20;29.20;;;17.10;;
5549;SDS011;2798;42.716;23.256;2023-03-04T15:39:46;30.50;;;18.57;;
5549;SDS011;2798;42.716;23.256;2023-03-04T15:42:11;30.53;;;19.00;;
5549;SDS011;2798;42.716;23.256;2023-03-04T15:44:37;32.67;;;16.77;;
5549;SDS011;2798;42.716;23.256;2023-03-04T15:47:03;24.03;;;17.00;;
5549;SDS011;2798;42.716;23.256;2023-03-04T15:49:28;30.73;;;17.73;;
5549;SDS011;2798;42.716;23.256;2023-03-04T15:51:53;28.80;;;17.73;;
5549;SDS011;2798;42.716;23.256;2023-03-04T15:54:26;31.57;;;18.13;;
5549;SDS011;2798;42.716;23.256;2023-03-04T15:56:52;28.33;;;17.47;;
5549;SDS011;2798;42.716;23.256;2023-03-04T15:59:17;29.80;;;16.93;;
5549;SDS011;2798;42.716;23.256;2023-03-04T16:01:42;30.60;;;17.13;;
5549;SDS011;2798;42.716;23.256;2023-03-04T16:04:10;27.27;;;16.80;;
5549;SDS011;2798;42.716;23.256;2023-03-04T16:06:35;31.67;;;16.30;;
5549;SDS011;2798;42.716;23.256;2023-03-04T16:09:01;24.77;;;14.83;;
5549;SDS011;2798;42.716;23.256;2023-03-04T16:11:28;24.57;;;15.97;;
5549;SDS011;2798;42.716;23.256;2023-03-04T16:13:54;28.23;;;17.17;;
5549;SDS011;2798;42.716;23.256;2023-03-04T16:16:19;24.80;;;16.00;;
5549;SDS011;2798;42.716;23.256;2023-03-04T16:18:45;28.97;;;16.73;;
5549;SDS011;2798;42.716;23.256;2023-03-04T16:21:11;33.87;;;17.67;;
5549;SDS011;2798;42.716;23.256;2023-03-04T16:23:38;30.77;;;15.60;;
5549;SDS011;2798;42.716;23.256;2023-03-04T16:26:05;30.80;;;15.83;;
5549;SDS011;2798;42.716;23.256;2023-03-04T16:28:35;24.50;;;16.70;;
5549;SDS011;2798;42.716;23.256;2023-03-04T16:31:00;27.27;;;17.60;;
5549;SDS011;2798;42.716;23.256;2023-03-04T16:33:25;32.30;;;17.47;;
5549;SDS011;2798;42.716;23.256;2023-03-04T16:35:51;34.93;;;17.90;;
5549;SDS011;2798;42.716;23.256;2023-03-04T16:38:19;27.57;;;16.20;;
5549;SDS011;2798;42.716;23.256;2023-03-04T16:40:45;31.00;;;18.70;;
5549;SDS011;2798;42.716;23.256;2023-03-04T16:43:11;34.23;;;20.70;;